LTAU

Kayseri/Erkilet Airport

Airport
ICAO code
LTAU
IATA Code
ASR
Summary
ICAO Region
EUR
ICAO Territory
Location

Kayseri,

Serving
Kayseri
Elevation
3506 ft
Coordinates
38° 46' 29" N , 35° 29' 31" E
Metar
LTAU 201650Z 16015KT 130V190 9999 SCT040 BKN100 17/04 Q1007 NOSIG

Runways

Designator Length Width Surface Rops
7/25 3000 44 CON Yes/Yes

Airport map

Aerial View

SKYbrary Partners:

Safety knowledge contributed by: